Wetterdaten: Woche 25.09.17 - 01.10.17 (KW39)
Datum Zeit Temp. I. Temp. A. Boden 5 cm Feuchte A. Sonne Luftdruck Regen Wind Sonnenschein
25.09.2017 00:00 22,0 C 10,9 C 13,9 C 83 % 0 % 1023 hPa 0,0 l/m 0,2 km/h (0 Bft) 0,00 h
25.09.2017 01:00 21,9 C 9,9 C 13,2 C 84 % 4 % 1023 hPa 0,0 l/m 0,0 km/h (0 Bft) 0,00 h
25.09.2017 02:00 21,9 C 9,2 C 12,6 C 84 % 19 % 1023 hPa 0,0 l/m 0,2 km/h (0 Bft) 0,00 h
25.09.2017 03:00 21,9 C 8,5 C 12,0 C 85 % 19 % 1022 hPa 0,0 l/m 0,0 km/h (0 Bft) 0,00 h
25.09.2017 04:00 21,9 C 8,0 C 11,5 C 85 % 19 % 1022 hPa 0,0 l/m 0,2 km/h (0 Bft) 0,00 h
25.09.2017 05:00 21,9 C 7,4 C 10,9 C 86 % 19 % 1022 hPa 0,0 l/m 0,0 km/h (0 Bft) 0,00 h
25.09.2017 06:00 21,9 C 7,0 C 10,5 C 87 % 19 % 1022 hPa 0,0 l/m 0,0 km/h (0 Bft) 0,00 h
25.09.2017 07:00 21,5 C 7,3 C 10,4 C 88 % 19 % 1022 hPa 0,0 l/m 0,0 km/h (0 Bft) 0,65 h
25.09.2017 08:00 21,7 C 8,4 C 10,7 C 89 % 19 % 1023 hPa 0,0 l/m 0,0 km/h (0 Bft) 0,00 h
25.09.2017 09:00 21,9 C 9,7 C 11,1 C 91 % 19 % 1023 hPa 0,0 l/m 0,1 km/h (0 Bft) 0,00 h
25.09.2017 10:00 21,9 C 11,4 C 11,9 C 88 % 19 % 1023 hPa 0,0 l/m 2,7 km/h (1 Bft) 0,00 h
25.09.2017 11:00 21,7 C 13,0 C 12,8 C 81 % 19 % 1023 hPa 0,0 l/m 5,9 km/h (2 Bft) 0,00 h
25.09.2017 12:00 21,9 C 14,6 C 13,9 C 76 % 19 % 1022 hPa 0,0 l/m 6,1 km/h (2 Bft) 0,00 h
25.09.2017 13:00 22,0 C 16,5 C 16,2 C 71 % 19 % 1022 hPa 0,0 l/m 8,4 km/h (2 Bft) 0,00 h
25.09.2017 14:00 22,1 C 17,8 C 18,6 C 67 % 19 % 1022 hPa 0,0 l/m 9,2 km/h (2 Bft) 0,00 h
25.09.2017 15:00 22,2 C 18,1 C 19,2 C 62 % 19 % 1022 hPa 0,0 l/m 9,4 km/h (2 Bft) 0,00 h
25.09.2017 16:00 22,2 C 18,1 C 19,4 C 60 % 19 % 1021 hPa 0,0 l/m 8,4 km/h (2 Bft) 0,00 h
25.09.2017 17:00 22,2 C 17,8 C 18,8 C 63 % 19 % 1021 hPa 0,0 l/m 7,1 km/h (2 Bft) 0,15 h
25.09.2017 18:00 22,1 C 16,8 C 18,1 C 68 % 19 % 1022 hPa 0,0 l/m 2,0 km/h (1 Bft) 0,85 h
25.09.2017 19:00 22,0 C 14,9 C 17,1 C 75 % 19 % 1022 hPa 0,0 l/m 0,0 km/h (0 Bft) 0,00 h
25.09.2017 20:00 22,0 C 13,5 C 16,2 C 77 % 19 % 1022 hPa 0,0 l/m 0,0 km/h (0 Bft) 0,00 h
25.09.2017 21:00 22,1 C 13,0 C 15,6 C 78 % 19 % 1022 hPa 0,0 l/m 0,0 km/h (0 Bft) 0,00 h
25.09.2017 22:00 22,0 C 12,0 C 14,8 C 81 % 19 % 1022 hPa 0,0 l/m 0,0 km/h (0 Bft) 0,00 h
25.09.2017 23:00 22,0 C 11,4 C 14,3 C 82 % 19 % 1022 hPa 0,0 l/m 1,0 km/h (0 Bft) 0,00 h
26.09.2017 00:00 21,9 C 10,9 C 13,9 C 83 % 19 % 1022 hPa 0,0 l/m 0,5 km/h (0 Bft) 0,00 h
26.09.2017 01:00 21,9 C 11,0 C 13,5 C 83 % 19 % 1022 hPa 0,0 l/m 0,3 km/h (0 Bft) 0,00 h
26.09.2017 02:00 21,9 C 10,9 C 13,4 C 84 % 19 % 1022 hPa 0,0 l/m 0,0 km/h (0 Bft) 0,00 h
26.09.2017 03:00 21,9 C 10,4 C 13,0 C 84 % 19 % 1022 hPa 0,0 l/m 0,2 km/h (0 Bft) 0,00 h
26.09.2017 04:00 21,9 C 9,8 C 12,6 C 85 % 19 % 1022 hPa 0,0 l/m 0,1 km/h (0 Bft) 0,00 h
26.09.2017 05:00 21,9 C 9,4 C 12,2 C 85 % 19 % 1022 hPa 0,0 l/m 0,1 km/h (0 Bft) 0,00 h
26.09.2017 06:00 21,9 C 8,5 C 11,7 C 85 % 19 % 1023 hPa 0,0 l/m 0,0 km/h (0 Bft) 0,00 h
26.09.2017 07:00 21,5 C 8,1 C 11,3 C 85 % 19 % 1023 hPa 0,0 l/m 0,0 km/h (0 Bft) 0,70 h
26.09.2017 08:00 21,7 C 9,0 C 11,3 C 87 % 19 % 1023 hPa 0,0 l/m 0,2 km/h (0 Bft) 0,00 h
26.09.2017 09:00 21,8 C 11,8 C 12,0 C 81 % 19 % 1024 hPa 0,0 l/m 4,8 km/h (1 Bft) 0,00 h
26.09.2017 10:00 22,0 C 14,7 C 13,3 C 73 % 19 % 1024 hPa 0,0 l/m 13,2 km/h (3 Bft) 0,00 h
26.09.2017 11:00 22,0 C 16,4 C 14,9 C 68 % 19 % 1024 hPa 0,0 l/m 12,7 km/h (3 Bft) 0,00 h
26.09.2017 12:00 22,1 C 17,9 C 16,1 C 64 % 19 % 1024 hPa 0,0 l/m 14,4 km/h (3 Bft) 0,00 h
26.09.2017 13:00 22,2 C 18,0 C 17,7 C 62 % 19 % 1024 hPa 0,0 l/m 13,7 km/h (3 Bft) 0,00 h
26.09.2017 14:00 22,2 C 18,3 C 18,9 C 63 % 19 % 1024 hPa 0,0 l/m 14,1 km/h (3 Bft) 0,00 h
26.09.2017 15:00 22,3 C 18,7 C 19,7 C 62 % 19 % 1023 hPa 0,0 l/m 15,8 km/h (3 Bft) 0,00 h
26.09.2017 16:00 22,3 C 18,7 C 19,8 C 63 % 19 % 1023 hPa 0,0 l/m 14,2 km/h (3 Bft) 0,00 h
26.09.2017 17:00 22,2 C 18,2 C 19,2 C 65 % 19 % 1023 hPa 0,0 l/m 15,3 km/h (3 Bft) 0,20 h
26.09.2017 18:00 22,3 C 17,2 C 18,6 C 70 % 19 % 1024 hPa 0,0 l/m 11,0 km/h (2 Bft) 0,80 h
26.09.2017 19:00 22,4 C 16,0 C 17,9 C 74 % 19 % 1024 hPa 0,0 l/m 2,7 km/h (1 Bft) 0,00 h
26.09.2017 20:00 22,4 C 15,2 C 17,2 C 75 % 19 % 1024 hPa 0,0 l/m 7,7 km/h (2 Bft) 0,00 h
26.09.2017 21:00 22,4 C 15,1 C 16,8 C 75 % 19 % 1024 hPa 0,0 l/m 8,5 km/h (2 Bft) 0,00 h
26.09.2017 22:00 22,3 C 15,0 C 16,5 C 75 % 19 % 1024 hPa 0,0 l/m 3,9 km/h (1 Bft) 0,00 h
26.09.2017 23:00 22,2 C 14,8 C 16,1 C 76 % 19 % 1025 hPa 0,0 l/m 7,8 km/h (2 Bft) 0,00 h
27.09.2017 00:00 22,1 C 13,5 C 15,6 C 79 % 19 % 1025 hPa 0,0 l/m 0,8 km/h (0 Bft) 0,00 h
27.09.2017 01:00 22,1 C 13,2 C 15,1 C 81 % 19 % 1025 hPa 0,0 l/m 3,1 km/h (1 Bft) 0,00 h
27.09.2017 02:00 22,1 C 13,1 C 14,9 C 81 % 19 % 1025 hPa 0,0 l/m 3,1 km/h (1 Bft) 0,00 h
27.09.2017 03:00 22,1 C 12,5 C 14,5 C 83 % 19 % 1025 hPa 0,0 l/m 1,1 km/h (1 Bft) 0,00 h
27.09.2017 04:00 22,1 C 11,5 C 14,0 C 85 % 19 % 1025 hPa 0,0 l/m 1,0 km/h (0 Bft) 0,00 h
27.09.2017 05:00 22,0 C 10,8 C 13,5 C 85 % 19 % 1025 hPa 0,0 l/m 0,3 km/h (0 Bft) 0,00 h
27.09.2017 06:00 21,9 C 10,3 C 13,1 C 87 % 19 % 1025 hPa 0,0 l/m 0,0 km/h (0 Bft) 0,00 h
27.09.2017 07:00 21,6 C 10,1 C 12,8 C 87 % 19 % 1025 hPa 0,0 l/m 0,0 km/h (0 Bft) 0,63 h
27.09.2017 08:00 21,8 C 10,6 C 12,8 C 88 % 19 % 1026 hPa 0,0 l/m 0,3 km/h (0 Bft) 0,00 h
27.09.2017 09:00 21,9 C 12,4 C 13,3 C 85 % 19 % 1026 hPa 0,0 l/m 2,7 km/h (1 Bft) 0,00 h
27.09.2017 10:00 22,0 C 14,2 C 14,1 C 79 % 19 % 1026 hPa 0,0 l/m 1,7 km/h (1 Bft) 0,00 h
27.09.2017 11:00 22,1 C 16,2 C 15,4 C 75 % 19 % 1026 hPa 0,0 l/m 4,2 km/h (1 Bft) 0,00 h
27.09.2017 12:00 22,2 C 18,8 C 17,2 C 69 % 19 % 1026 hPa 0,0 l/m 5,8 km/h (1 Bft) 0,00 h
27.09.2017 13:00 22,2 C 20,2 C 19,4 C 62 % 19 % 1025 hPa 0,0 l/m 3,8 km/h (1 Bft) 0,00 h
27.09.2017 14:00 22,3 C 20,3 C 20,9 C 64 % 19 % 1025 hPa 0,0 l/m 2,8 km/h (1 Bft) 0,00 h
27.09.2017 15:00 22,3 C 19,5 C 20,7 C 69 % 19 % 1025 hPa 0,0 l/m 2,2 km/h (1 Bft) 0,00 h
27.09.2017 16:00 22,4 C 20,0 C 20,5 C 66 % 19 % 1025 hPa 0,0 l/m 2,5 km/h (1 Bft) 0,00 h
27.09.2017 17:00 22,6 C 20,2 C 20,3 C 65 % 19 % 1025 hPa 0,0 l/m 7,6 km/h (2 Bft) 0,25 h
27.09.2017 18:00 22,4 C 18,7 C 19,6 C 70 % 19 % 1025 hPa 0,0 l/m 1,3 km/h (1 Bft) 0,73 h
27.09.2017 19:00 22,4 C 16,6 C 18,6 C 75 % 19 % 1025 hPa 0,0 l/m 0,3 km/h (0 Bft) 0,00 h
27.09.2017 20:00 22,5 C 15,4 C 17,7 C 78 % 19 % 1025 hPa 0,0 l/m 0,4 km/h (0 Bft) 0,00 h
27.09.2017 21:00 22,5 C 14,1 C 16,8 C 81 % 19 % 1026 hPa 0,0 l/m 1,0 km/h (0 Bft) 0,00 h
27.09.2017 22:00 22,4 C 13,3 C 16,1 C 82 % 19 % 1026 hPa 0,0 l/m 0,2 km/h (0 Bft) 0,00 h
27.09.2017 23:00 22,4 C 12,2 C 15,3 C 84 % 19 % 1026 hPa 0,0 l/m 0,1 km/h (0 Bft) 0,00 h
28.09.2017 00:00 22,4 C 11,4 C 14,6 C 84 % 19 % 1026 hPa 0,0 l/m 0,0 km/h (0 Bft) 0,00 h
28.09.2017 01:00 22,3 C 10,9 C 14,1 C 84 % 19 % 1026 hPa 0,0 l/m 0,1 km/h (0 Bft) 0,00 h
28.09.2017 02:00 22,3 C 10,2 C 13,4 C 85 % 19 % 1027 hPa 0,0 l/m 0,0 km/h (0 Bft) 0,00 h
28.09.2017 03:00 22,2 C 9,5 C 12,9 C 85 % 19 % 1027 hPa 0,0 l/m 0,0 km/h (0 Bft) 0,00 h
28.09.2017 04:00 22,2 C 8,9 C 12,3 C 86 % 19 % 1026 hPa 0,0 l/m 0,0 km/h (0 Bft) 0,00 h
28.09.2017 05:00 22,2 C 8,5 C 11,8 C 87 % 19 % 1027 hPa 0,0 l/m 0,0 km/h (0 Bft) 0,00 h
28.09.2017 06:00 22,2 C 8,3 C 11,6 C 89 % 19 % 1027 hPa 0,0 l/m 0,0 km/h (0 Bft) 0,00 h
28.09.2017 07:00 21,8 C 9,0 C 11,5 C 90 % 19 % 1027 hPa 0,0 l/m 0,0 km/h (0 Bft) 0,63 h
28.09.2017 08:00 22,0 C 9,6 C 11,7 C 91 % 19 % 1028 hPa 0,0 l/m 0,3 km/h (0 Bft) 0,00 h
28.09.2017 09:00 22,1 C 10,6 C 12,2 C 92 % 19 % 1028 hPa 0,0 l/m 0,6 km/h (0 Bft) 0,00 h
28.09.2017 10:00 22,0 C 11,7 C 12,7 C 92 % 19 % 1029 hPa 0,0 l/m 1,6 km/h (1 Bft) 0,00 h
28.09.2017 11:00 21,8 C 13,9 C 13,8 C 86 % 19 % 1028 hPa 0,0 l/m 3,0 km/h (1 Bft) 0,00 h
28.09.2017 12:00 22,1 C 17,1 C 15,3 C 74 % 19 % 1028 hPa 0,0 l/m 1,4 km/h (1 Bft) 0,00 h
28.09.2017 13:00 22,2 C 19,3 C 17,4 C 66 % 19 % 1028 hPa 0,0 l/m 4,2 km/h (1 Bft) 0,00 h
28.09.2017 14:00 22,1 C 20,0 C 19,1 C 62 % 19 % 1027 hPa 0,0 l/m 3,7 km/h (1 Bft) 0,00 h
28.09.2017 15:00 22,0 C 20,2 C 19,7 C 62 % 19 % 1027 hPa 0,0 l/m 3,0 km/h (1 Bft) 0,00 h
28.09.2017 16:00 22,1 C 20,2 C 19,7 C 63 % 19 % 1027 hPa 0,0 l/m 2,1 km/h (1 Bft) 0,00 h
28.09.2017 17:00 22,2 C 19,4 C 19,2 C 69 % 19 % 1027 hPa 0,0 l/m 0,4 km/h (0 Bft) 0,25 h
28.09.2017 18:00 22,2 C 18,0 C 18,6 C 73 % 19 % 1027 hPa 0,0 l/m 0,0 km/h (0 Bft) 0,70 h
28.09.2017 19:00 22,2 C 16,3 C 17,8 C 76 % 19 % 1027 hPa 0,0 l/m 0,0 km/h (0 Bft) 0,00 h
28.09.2017 20:00 22,2 C 15,0 C 17,1 C 80 % 19 % 1027 hPa 0,0 l/m 0,0 km/h (0 Bft) 0,00 h
28.09.2017 21:00 22,2 C 13,9 C 16,4 C 81 % 19 % 1028 hPa 0,0 l/m 0,1 km/h (0 Bft) 0,00 h
28.09.2017 22:00 22,2 C 13,0 C 15,7 C 83 % 19 % 1028 hPa 0,0 l/m 0,0 km/h (0 Bft) 0,00 h
28.09.2017 23:00 22,1 C 12,1 C 15,0 C 84 % 19 % 1028 hPa 0,0 l/m 0,0 km/h (0 Bft) 0,00 h
29.09.2017 00:00 22,1 C 11,1 C 14,3 C 84 % 19 % 1027 hPa 0,0 l/m 0,0 km/h (0 Bft) 0,00 h
29.09.2017 01:00 22,0 C 10,6 C 13,7 C 85 % 19 % 1027 hPa 0,0 l/m 0,0 km/h (0 Bft) 0,00 h
29.09.2017 02:00 22,0 C 10,1 C 13,2 C 86 % 19 % 1027 hPa 0,0 l/m 0,2 km/h (0 Bft) 0,00 h
29.09.2017 03:00 22,0 C 9,7 C 12,8 C 86 % 19 % 1027 hPa 0,0 l/m 0,0 km/h (0 Bft) 0,00 h
29.09.2017 04:00 22,0 C 9,4 C 12,4 C 87 % 19 % 1027 hPa 0,0 l/m 0,0 km/h (0 Bft) 0,00 h
29.09.2017 05:00 22,0 C 9,3 C 12,1 C 86 % 19 % 1026 hPa 0,0 l/m 0,1 km/h (0 Bft) 0,00 h
29.09.2017 06:00 22,1 C 8,9 C 11,7 C 87 % 19 % 1026 hPa 0,0 l/m 0,0 km/h (0 Bft) 0,00 h
29.09.2017 07:00 21,6 C 8,8 C 11,6 C 88 % 19 % 1027 hPa 0,0 l/m 0,2 km/h (0 Bft) 0,65 h
29.09.2017 08:00 21,8 C 10,2 C 11,8 C 87 % 19 % 1027 hPa 0,0 l/m 1,2 km/h (1 Bft) 0,00 h
29.09.2017 09:00 22,0 C 12,3 C 12,4 C 82 % 19 % 1027 hPa 0,0 l/m 6,1 km/h (2 Bft) 0,00 h
29.09.2017 10:00 22,1 C 14,4 C 13,5 C 76 % 19 % 1027 hPa 0,0 l/m 8,4 km/h (2 Bft) 0,00 h
29.09.2017 11:00 22,1 C 16,3 C 14,8 C 71 % 19 % 1026 hPa 0,0 l/m 8,9 km/h (2 Bft) 0,00 h
29.09.2017 12:00 22,2 C 18,4 C 16,2 C 67 % 19 % 1026 hPa 0,0 l/m 8,2 km/h (2 Bft) 0,00 h
29.09.2017 13:00 22,4 C 19,5 C 18,3 C 63 % 19 % 1025 hPa 0,0 l/m 7,4 km/h (2 Bft) 0,00 h
29.09.2017 14:00 22,4 C 20,4 C 20,6 C 60 % 19 % 1025 hPa 0,0 l/m 5,5 km/h (1 Bft) 0,00 h
29.09.2017 15:00 22,4 C 20,1 C 20,9 C 61 % 19 % 1024 hPa 0,0 l/m 1,4 km/h (1 Bft) 0,00 h
29.09.2017 16:00 22,4 C 19,8 C 20,3 C 63 % 19 % 1024 hPa 0,0 l/m 1,3 km/h (1 Bft) 0,00 h
29.09.2017 17:00 22,4 C 18,9 C 19,7 C 70 % 19 % 1024 hPa 0,0 l/m 0,0 km/h (0 Bft) 0,30 h
29.09.2017 18:00 22,3 C 17,8 C 19,0 C 74 % 19 % 1024 hPa 0,0 l/m 0,0 km/h (0 Bft) 0,70 h
29.09.2017 19:00 22,3 C 16,3 C 18,2 C 78 % 19 % 1024 hPa 0,0 l/m 0,0 km/h (0 Bft) 0,00 h
29.09.2017 20:00 22,4 C 15,2 C 17,4 C 79 % 19 % 1024 hPa 0,0 l/m 0,0 km/h (0 Bft) 0,00 h
29.09.2017 21:00 22,4 C 14,4 C 16,8 C 81 % 19 % 1024 hPa 0,0 l/m 0,0 km/h (0 Bft) 0,00 h
29.09.2017 22:00 22,3 C 13,9 C 16,3 C 82 % 19 % 1024 hPa 0,0 l/m 0,0 km/h (0 Bft) 0,00 h
29.09.2017 23:00 22,2 C 13,2 C 15,7 C 81 % 19 % 1024 hPa 0,0 l/m 0,0 km/h (0 Bft) 0,00 h
30.09.2017 00:00 22,2 C 12,3 C 15,1 C 81 % 19 % 1024 hPa 0,0 l/m 0,0 km/h (0 Bft) 0,00 h
30.09.2017 01:00 22,2 C 11,5 C 14,4 C 82 % 19 % 1023 hPa 0,0 l/m 0,1 km/h (0 Bft) 0,00 h
30.09.2017 02:00 22,2 C 10,8 C 13,9 C 83 % 19 % 1023 hPa 0,0 l/m 0,0 km/h (0 Bft) 0,00 h
30.09.2017 03:00 22,2 C 10,3 C 13,4 C 83 % 19 % 1023 hPa 0,0 l/m 0,0 km/h (0 Bft) 0,00 h
30.09.2017 04:00 22,2 C 9,5 C 12,8 C 84 % 19 % 1022 hPa 0,0 l/m 0,3 km/h (0 Bft) 0,00 h
30.09.2017 05:00 22,2 C 9,0 C 12,3 C 85 % 19 % 1022 hPa 0,0 l/m 0,1 km/h (0 Bft) 0,00 h
30.09.2017 06:00 22,1 C 8,6 C 11,9 C 85 % 19 % 1022 hPa 0,0 l/m 0,0 km/h (0 Bft) 0,00 h
30.09.2017 07:00 22,1 C 8,4 C 11,6 C 86 % 19 % 1022 hPa 0,0 l/m 0,1 km/h (0 Bft) 0,70 h
30.09.2017 08:00 22,1 C 9,5 C 11,7 C 86 % 19 % 1022 hPa 0,0 l/m 2,9 km/h (1 Bft) 0,00 h
30.09.2017 09:00 22,2 C 11,6 C 12,2 C 79 % 19 % 1022 hPa 0,0 l/m 7,4 km/h (2 Bft) 0,00 h
30.09.2017 10:00 22,2 C 13,6 C 13,4 C 74 % 19 % 1022 hPa 0,0 l/m 10,0 km/h (2 Bft) 0,00 h
30.09.2017 11:00 22,4 C 15,6 C 14,7 C 70 % 19 % 1021 hPa 0,0 l/m 12,4 km/h (3 Bft) 0,00 h
30.09.2017 12:00 22,5 C 17,7 C 16,5 C 64 % 19 % 1021 hPa 0,0 l/m 15,3 km/h (3 Bft) 0,00 h
30.09.2017 13:00 22,5 C 19,2 C 19,1 C 60 % 19 % 1020 hPa 0,0 l/m 14,5 km/h (3 Bft) 0,00 h
30.09.2017 14:00 22,8 C 20,3 C 21,5 C 57 % 19 % 1019 hPa 0,0 l/m 14,3 km/h (3 Bft) 0,00 h
30.09.2017 15:00 22,9 C 20,7 C 22,7 C 53 % 19 % 1018 hPa 0,0 l/m 13,4 km/h (3 Bft) 0,00 h
30.09.2017 16:00 22,8 C 20,6 C 21,9 C 53 % 19 % 1018 hPa 0,0 l/m 10,7 km/h (2 Bft) 0,00 h
30.09.2017 17:00 22,8 C 19,7 C 21,0 C 53 % 19 % 1018 hPa 0,0 l/m 10,1 km/h (2 Bft) 0,35 h
30.09.2017 18:00 22,8 C 17,6 C 19,8 C 60 % 19 % 1018 hPa 0,0 l/m 3,5 km/h (1 Bft) 0,65 h
30.09.2017 19:00 22,8 C 15,8 C 18,6 C 66 % 19 % 1018 hPa 0,0 l/m 0,5 km/h (0 Bft) 0,00 h
30.09.2017 20:00 22,8 C 14,1 C 17,3 C 72 % 19 % 1018 hPa 0,0 l/m 0,0 km/h (0 Bft) 0,00 h
30.09.2017 21:00 22,8 C 12,8 C 16,3 C 75 % 19 % 1018 hPa 0,0 l/m 0,2 km/h (0 Bft) 0,00 h
30.09.2017 22:00 22,7 C 11,9 C 15,4 C 77 % 19 % 1019 hPa 0,0 l/m 0,6 km/h (0 Bft) 0,00 h
30.09.2017 23:00 22,6 C 11,3 C 14,7 C 77 % 19 % 1019 hPa 0,0 l/m 0,2 km/h (0 Bft) 0,00 h
01.10.2017 00:00 22,6 C 10,5 C 13,9 C 78 % 19 % 1019 hPa 0,0 l/m 0,0 km/h (0 Bft) 0,00 h
01.10.2017 01:00 22,5 C 10,1 C 13,4 C 79 % 19 % 1019 hPa 0,0 l/m 0,1 km/h (0 Bft) 0,00 h
01.10.2017 02:00 22,5 C 9,8 C 13,0 C 80 % 19 % 1019 hPa 0,0 l/m 0,2 km/h (0 Bft) 0,00 h
01.10.2017 03:00 22,4 C 9,3 C 12,5 C 80 % 19 % 1020 hPa 0,0 l/m 0,1 km/h (0 Bft) 0,00 h
01.10.2017 04:00 22,4 C 8,9 C 12,2 C 82 % 19 % 1020 hPa 0,0 l/m 0,0 km/h (0 Bft) 0,00 h
01.10.2017 05:00 22,4 C 9,3 C 12,1 C 82 % 19 % 1021 hPa 0,0 l/m 0,0 km/h (0 Bft) 0,00 h
01.10.2017 06:00 22,4 C 9,5 C 12,0 C 83 % 19 % 1021 hPa 0,0 l/m 0,0 km/h (0 Bft) 0,00 h
01.10.2017 07:00 22,4 C 10,0 C 12,1 C 82 % 19 % 1022 hPa 0,0 l/m 0,1 km/h (0 Bft) 0,70 h
01.10.2017 08:00 22,4 C 10,3 C 12,3 C 82 % 19 % 1023 hPa 0,3 l/m 0,0 km/h (0 Bft) 0,10 h
01.10.2017 09:00 22,4 C 10,6 C 12,4 C 84 % 19 % 1023 hPa 0,3 l/m 0,6 km/h (0 Bft) 0,00 h
01.10.2017 10:00 22,5 C 10,7 C 12,6 C 84 % 19 % 1024 hPa 0,0 l/m 0,2 km/h (0 Bft) 0,00 h
01.10.2017 11:00 22,6 C 11,1 C 12,8 C 86 % 19 % 1024 hPa 0,0 l/m 0,6 km/h (0 Bft) 0,00 h
01.10.2017 12:00 22,7 C 11,5 C 12,9 C 87 % 19 % 1024 hPa 0,0 l/m 1,0 km/h (0 Bft) 0,00 h
01.10.2017 13:00 22,6 C 11,9 C 13,1 C 87 % 19 % 1024 hPa 0,0 l/m 0,8 km/h (0 Bft) 0,00 h
01.10.2017 14:00 22,6 C 13,3 C 13,7 C 85 % 19 % 1024 hPa 0,0 l/m 2,4 km/h (1 Bft) 0,00 h
01.10.2017 15:00 22,8 C 14,1 C 14,3 C 82 % 19 % 1024 hPa 0,0 l/m 2,6 km/h (1 Bft) 0,00 h
01.10.2017 16:00 22,7 C 13,8 C 14,4 C 83 % 19 % 1024 hPa 0,0 l/m 0,4 km/h (0 Bft) 0,00 h
01.10.2017 17:00 22,8 C 13,5 C 14,4 C 85 % 19 % 1024 hPa 0,0 l/m 0,0 km/h (0 Bft) 0,00 h
01.10.2017 18:00 22,8 C 13,1 C 14,3 C 88 % 19 % 1024 hPa 0,3 l/m 0,0 km/h (0 Bft) 0,55 h
01.10.2017 19:00 22,8 C 13,0 C 14,2 C 89 % 19 % 1024 hPa 0,0 l/m 0,0 km/h (0 Bft) 0,00 h
01.10.2017 20:00 22,8 C 13,0 C 14,1 C 89 % 19 % 1024 hPa 0,0 l/m 0,1 km/h (0 Bft) 0,00 h
01.10.2017 21:00 22,8 C 13,0 C 14,1 C 89 % 19 % 1025 hPa 0,0 l/m 0,0 km/h (0 Bft) 0,00 h
01.10.2017 22:00 22,6 C 12,9 C 14,1 C 89 % 19 % 1025 hPa 0,0 l/m 0,0 km/h (0 Bft) 0,00 h
01.10.2017 23:00 22,6 C 12,6 C 13,9 C 89 % 19 % 1025 hPa 0,0 l/m 0,0 km/h (0 Bft) 0,00 h
Min-Datum _ 25.09.17 25.09.17 25.09.17 30.09.17 - 30.09.17 - 25.09.17 -
_ Min-Zeit 07:36 06:33 07:00 15:48 - 14:48 - 00:00 -
Minimum _ 20,9 C 6,9 C 10,3 C 50 % - 1018 hPa - 0,0 km/h (0 Bft) -
Max-Datum _ 30.09.17 29.09.17 30.09.17 28.09.17 25.09.17 28.09.17 01.10.17 26.09.17 25.09.17
_ Max-Zeit 14:54 14:30 15:15 08:51 01:48 09:36 08:54 17:54 07:09
Maximum _ 23,0 C 20,8 C 23,1 C 92 % 19 % 1029 hPa 0,3 l/m 23,6 km/h
S-SO (4 Bft)
0,05 h
Durchschnitt _ 22,2 C 13,5 C 15,1 C 78 % #11:15 h 1024 hPa #1,0 l/m 2,8 km/h (1 Bft) #11:15 h